Time;durP1;ratioP1;P1;durP2;ratioP2;P2;SDS_P1;SDS_P2;PMS_P1;PMS_P2;Temp;Humidity;BMP_temperature;BMP_pressure;BME280_temperature;BME280_humidity;BME280_pressure;Samples;Min_cycle;Max_cycle;Signal;HPM_P1;HPM_P2
2023/06/23 00:01:20;;;;;;;16.48;7.60;;;16.00;99.90;;;;;;5073236;28;20040;-52
2023/06/23 00:03:46;;;;;;;14.90;7.07;;;16.00;99.90;;;;;;5091538;28;20074;-49
2023/06/23 00:06:12;;;;;;;16.30;8.43;;;16.00;99.90;;;;;;5091635;28;20028;-52
2023/06/23 00:08:41;;;;;;;14.38;7.63;;;16.00;99.90;;;;;;5091560;28;20029;-53
2023/06/23 00:11:08;;;;;;;12.85;6.93;;;16.00;99.90;;;;;;5091394;28;20111;-51
2023/06/23 00:13:35;;;;;;;16.83;8.48;;;16.00;99.90;;;;;;5091435;28;20532;-53
2023/06/23 00:16:05;;;;;;;15.68;7.53;;;16.10;99.90;;;;;;5091134;28;20031;-52
2023/06/23 00:18:36;;;;;;;13.35;7.20;;;16.10;99.90;;;;;;5091138;28;20036;-54
2023/06/23 00:21:08;;;;;;;16.25;7.95;;;16.10;99.90;;;;;;5091400;28;20039;-53
2023/06/23 00:23:34;;;;;;;13.75;6.90;;;16.00;99.90;;;;;;5091277;28;20039;-49
2023/06/23 00:26:01;;;;;;;14.18;6.93;;;16.10;99.90;;;;;;5091083;28;20031;-51
2023/06/23 00:28:26;;;;;;;16.40;7.47;;;16.00;99.90;;;;;;5090877;28;20489;-53
2023/06/23 00:30:53;;;;;;;13.35;6.90;;;16.00;99.90;;;;;;5056215;28;20028;-48
2023/06/23 00:33:19;;;;;;;11.32;5.90;;;16.00;99.90;;;;;;5072860;28;20078;-53
2023/06/23 00:35:46;;;;;;;11.52;6.00;;;16.00;99.90;;;;;;5072884;28;20119;-54
2023/06/23 00:38:13;;;;;;;12.38;5.53;;;16.00;99.90;;;;;;5090985;28;20051;-53
2023/06/23 00:40:41;;;;;;;13.38;6.47;;;16.00;99.90;;;;;;5090772;28;20503;-55
2023/06/23 00:43:07;;;;;;;10.27;5.70;;;16.00;99.90;;;;;;5056062;28;20059;-53
2023/06/23 00:45:33;;;;;;;10.52;5.45;;;16.00;99.90;;;;;;5072738;28;20051;-54
2023/06/23 00:48:01;;;;;;;11.20;5.68;;;16.00;99.90;;;;;;5090701;28;20023;-51
2023/06/23 00:50:26;;;;;;;10.77;5.85;;;16.00;99.90;;;;;;5090727;28;20492;-53
2023/06/23 00:52:53;;;;;;;13.48;5.97;;;16.00;99.90;;;;;;5072725;28;20032;-53
2023/06/23 00:55:20;;;;;;;13.07;6.38;;;16.00;99.90;;;;;;5090820;28;20134;-54
2023/06/23 00:57:50;;;;;;;11.45;5.65;;;16.00;99.90;;;;;;5090701;28;20035;-54
2023/06/23 01:00:18;;;;;;;10.15;5.72;;;16.00;99.90;;;;;;5089652;28;20538;-52
2023/06/23 01:02:49;;;;;;;8.98;5.15;;;16.00;99.90;;;;;;5090514;28;20024;-49
2023/06/23 01:05:20;;;;;;;9.85;5.38;;;16.00;99.90;;;;;;5072592;28;20024;-54
2023/06/23 01:08:13;;;;;;;11.57;5.30;;;16.00;99.90;;;;;;5072457;28;20032;-52
2023/06/23 01:11:03;;;;;;;9.48;4.68;;;16.00;99.90;;;;;;5090375;28;20067;-50
2023/06/23 01:13:43;;;;;;;10.23;4.97;;;16.00;99.90;;;;;;5072531;28;20080;-53
2023/06/23 01:16:16;;;;;;;9.20;5.03;;;16.00;99.90;;;;;;5072235;28;20028;-53
2023/06/23 01:18:54;;;;;;;8.05;4.78;;;16.00;99.90;;;;;;5072425;28;20044;-54
2023/06/23 01:21:32;;;;;;;9.88;4.65;;;16.00;99.90;;;;;;5072160;28;20397;-54
2023/06/23 01:24:24;;;;;;;8.80;5.47;;;16.00;99.90;;;;;;5055744;28;20061;-54
2023/06/23 01:27:39;;;;;;;9.18;5.15;;;16.00;99.90;;;;;;5090306;28;20024;-55
2023/06/23 01:30:09;;;;;;;7.45;4.20;;;15.90;99.90;;;;;;5072229;28;20036;-55
2023/06/23 01:32:43;;;;;;;8.90;4.88;;;15.90;99.90;;;;;;5090350;28;20028;-51
2023/06/23 01:35:18;;;;;;;7.60;4.57;;;15.90;99.90;;;;;;5072146;28;20032;-50
2023/06/23 01:37:50;;;;;;;11.25;4.63;;;16.00;99.90;;;;;;5072816;28;20034;-51
2023/06/23 01:40:19;;;;;;;10.35;5.30;;;16.00;99.90;;;;;;5090487;28;20408;-53
2023/06/23 01:42:57;;;;;;;12.10;5.20;;;15.90;99.90;;;;;;5072146;28;20123;-54
2023/06/23 01:45:27;;;;;;;10.27;4.68;;;15.90;99.90;;;;;;5072086;28;20077;-53
2023/06/23 01:47:54;;;;;;;9.98;5.20;;;15.90;99.90;;;;;;5072321;28;20518;-50
2023/06/23 01:50:21;;;;;;;10.98;5.22;;;16.00;99.90;;;;;;5072180;28;20036;-50
2023/06/23 01:52:50;;;;;;;10.38;4.88;;;16.00;99.90;;;;;;5090326;28;20429;-54
2023/06/23 01:55:17;;;;;;;10.45;4.93;;;16.00;99.90;;;;;;5072070;28;20032;-52
2023/06/23 01:57:44;;;;;;;11.35;4.80;;;16.00;99.90;;;;;;5090662;28;20020;-52
2023/06/23 02:00:14;;;;;;;11.77;5.35;;;16.00;99.90;;;;;;5071911;28;20047;-52
2023/06/23 02:02:44;;;;;;;;;;;16.00;99.90;;;;;;5090630;28;20040;-52
2023/06/23 02:05:11;;;;;;;11.43;4.88;;;16.00;99.90;;;;;;5072101;28;19912;-53
2023/06/23 02:07:40;;;;;;;13.38;5.63;;;16.00;99.90;;;;;;5071911;28;20074;-54
2023/06/23 02:10:07;;;;;;;11.73;5.53;;;16.00;99.90;;;;;;5090009;28;20234;-51
2023/06/23 02:12:35;;;;;;;11.10;5.25;;;16.00;99.90;;;;;;5092826;28;20157;-53
2023/06/23 02:15:03;;;;;;;10.50;5.57;;;16.00;99.90;;;;;;5075425;28;20031;-54
2023/06/23 02:17:29;;;;;;;11.68;5.28;;;16.00;99.90;;;;;;5075633;28;20082;-52
2023/06/23 02:19:56;;;;;;;10.35;5.68;;;16.00;99.90;;;;;;5075350;28;20047;-53
2023/06/23 02:22:23;;;;;;;10.60;5.43;;;16.00;99.90;;;;;;5075156;28;20028;-54
2023/06/23 02:24:50;;;;;;;9.48;5.32;;;16.00;99.90;;;;;;5075161;28;20032;-52
2023/06/23 02:27:18;;;;;;;10.10;5.22;;;16.00;99.90;;;;;;5075208;28;20396;-55
2023/06/23 02:29:44;;;;;;;8.27;4.72;;;16.00;99.90;;;;;;5093242;28;20028;-54
2023/06/23 02:32:16;;;;;;;9.85;5.72;;;16.00;99.90;;;;;;5075010;28;20032;-53
2023/06/23 02:34:46;;;;;;;9.23;4.95;;;16.00;99.90;;;;;;5075387;28;20040;-55
2023/06/23 02:37:16;;;;;;;9.90;5.13;;;16.00;99.90;;;;;;5075131;28;20075;-54
2023/06/23 02:39:46;;;;;;;10.18;5.05;;;15.90;99.90;;;;;;5075031;28;20046;-50
2023/06/23 02:42:15;;;;;;;11.82;4.90;;;16.00;99.90;;;;;;5093378;28;20032;-51
2023/06/23 02:44:49;;;;;;;8.48;4.82;;;16.00;99.90;;;;;;5074959;28;20127;-50
2023/06/23 02:47:18;;;;;;;11.05;5.47;;;16.00;99.90;;;;;;5075158;28;20040;-49
2023/06/23 02:49:45;;;;;;;11.50;5.10;;;16.00;99.90;;;;;;5075053;28;20050;-50
2023/06/23 02:52:13;;;;;;;8.73;4.88;;;16.10;99.90;;;;;;5093397;28;20028;-48
2023/06/23 02:54:44;;;;;;;9.50;5.33;;;16.10;99.90;;;;;;5093594;28;20040;-50
2023/06/23 02:57:13;;;;;;;11.45;5.57;;;16.10;99.90;;;;;;5075401;28;20039;-49
2023/06/23 02:59:41;;;;;;;10.68;5.85;;;16.10;99.90;;;;;;5093301;28;20423;-49
2023/06/23 03:02:11;;;;;;;10.68;5.70;;;16.10;99.90;;;;;;5094461;28;20028;-49
2023/06/23 03:04:38;;;;;;;13.25;6.30;;;16.10;99.90;;;;;;5075565;28;20496;-49
2023/06/23 03:07:05;;;;;;;10.48;5.63;;;16.10;99.90;;;;;;5076568;28;20047;-50
2023/06/23 03:09:31;;;;;;;11.55;6.53;;;16.20;99.90;;;;;;5076352;28;20126;-49
2023/06/23 03:11:57;;;;;;;10.80;6.63;;;16.10;99.90;;;;;;5075031;28;20028;-49
2023/06/23 03:14:23;;;;;;;11.48;6.55;;;16.10;99.90;;;;;;5092597;28;20036;-53
2023/06/23 03:17:05;;;;;;;10.90;6.15;;;16.20;99.90;;;;;;5074353;28;20123;-54
2023/06/23 03:19:46;;;;;;;11.23;6.07;;;16.10;99.90;;;;;;5074253;28;20054;-53
2023/06/23 03:22:19;;;;;;;11.98;6.80;;;16.10;99.90;;;;;;5073703;28;20032;-53
2023/06/23 03:25:02;;;;;;;13.95;7.32;;;16.20;99.90;;;;;;5073701;28;20032;-52
2023/06/23 03:27:31;;;;;;;12.10;6.60;;;16.20;99.90;;;;;;5074176;28;20036;-54
2023/06/23 03:30:04;;;;;;;14.35;7.68;;;16.10;99.90;;;;;;5092167;28;20028;-53
2023/06/23 03:32:34;;;;;;;13.13;7.18;;;16.20;99.90;;;;;;5074379;28;20434;-54
2023/06/23 03:35:06;;;;;;;13.40;8.07;;;16.20;99.90;;;;;;5074077;28;20028;-53
2023/06/23 03:37:33;;;;;;;13.48;6.97;;;16.20;99.90;;;;;;5092354;28;20032;-50
2023/06/23 03:40:06;;;;;;;15.40;7.20;;;16.20;99.90;;;;;;5092074;28;20384;-51
2023/06/23 03:42:36;;;;;;;13.10;7.45;;;16.20;99.90;;;;;;5092186;28;20066;-55
2023/06/23 03:45:06;;;;;;;15.82;7.40;;;16.20;99.90;;;;;;5074174;28;20036;-52
2023/06/23 03:47:33;;;;;;;14.43;8.00;;;16.20;99.90;;;;;;5092157;28;20492;-48
2023/06/23 03:50:22;;;;;;;11.88;7.43;;;16.10;99.90;;;;;;5092085;28;20313;-50
2023/06/23 03:52:49;;;;;;;16.25;7.97;;;16.10;99.90;;;;;;5073894;28;20039;-51
2023/06/23 03:55:17;;;;;;;14.60;7.20;;;16.10;99.90;;;;;;5091873;28;20031;-53
2023/06/23 03:57:44;;;;;;;15.13;7.88;;;16.10;99.90;;;;;;5091719;28;20024;-54
2023/06/23 04:00:11;;;;;;;15.32;7.35;;;16.10;99.90;;;;;;5091753;28;20095;-49
2023/06/23 04:02:42;;;;;;;13.25;7.63;;;16.10;99.90;;;;;;5091599;28;20036;-50
2023/06/23 04:05:12;;;;;;;16.92;8.23;;;16.10;99.90;;;;;;5091464;28;20111;-49
2023/06/23 04:07:40;;;;;;;13.10;7.38;;;16.10;99.90;;;;;;5091536;28;20032;-49
2023/06/23 04:10:08;;;;;;;11.73;7.03;;;16.20;99.90;;;;;;5091319;28;20461;-53
2023/06/23 04:12:34;;;;;;;14.27;7.80;;;16.20;99.90;;;;;;5091392;28;20126;-51
2023/06/23 04:15:02;;;;;;;12.23;7.88;;;16.10;99.90;;;;;;5091517;28;20031;-52
2023/06/23 04:17:30;;;;;;;16.98;7.28;;;16.20;99.90;;;;;;5091335;28;20111;-51
2023/06/23 04:19:58;;;;;;;11.13;6.90;;;16.20;99.90;;;;;;5091353;28;20043;-49
2023/06/23 04:22:26;;;;;;;15.27;7.72;;;16.20;99.90;;;;;;5091153;28;20024;-50
2023/06/23 04:24:55;;;;;;;11.75;7.28;;;16.20;99.90;;;;;;5091228;28;20032;-54
2023/06/23 04:27:22;;;;;;;14.00;7.85;;;16.20;99.90;;;;;;5091163;28;20036;-54
2023/06/23 04:29:50;;;;;;;16.25;9.32;;;16.20;99.90;;;;;;5091056;28;20077;-53
2023/06/23 04:32:17;;;;;;;15.57;8.07;;;16.10;99.90;;;;;;5091310;28;20103;-54
2023/06/23 04:34:43;;;;;;;14.05;8.30;;;16.20;99.90;;;;;;5090971;28;20085;-55
2023/06/23 04:37:16;;;;;;;16.75;7.70;;;16.20;99.90;;;;;;5091219;28;20043;-54
2023/06/23 04:40:00;;;;;;;16.08;7.88;;;16.20;99.90;;;;;;5090970;28;20081;-53
2023/06/23 04:42:33;;;;;;;14.10;8.05;;;16.20;99.90;;;;;;5090763;28;20237;-52
2023/06/23 04:45:01;;;;;;;13.43;7.07;;;16.20;99.90;;;;;;5073052;28;20435;-52
2023/06/23 04:47:33;;;;;;;13.10;8.23;;;16.30;99.90;;;;;;5091110;28;20115;-53
2023/06/23 04:50:06;;;;;;;16.10;8.77;;;16.30;99.90;;;;;;5090944;28;20023;-50
2023/06/23 04:52:35;;;;;;;14.07;7.93;;;16.30;99.90;;;;;;5090891;28;20146;-53
2023/06/23 04:55:03;;;;;;;13.13;7.15;;;16.40;99.90;;;;;;5090787;28;20032;-53
2023/06/23 04:57:33;;;;;;;14.27;7.28;;;16.40;99.90;;;;;;5090985;28;20070;-52
2023/06/23 05:00:03;;;;;;;13.27;7.57;;;16.50;99.90;;;;;;5090726;28;20043;-52
2023/06/23 05:02:32;;;;;;;13.60;7.45;;;16.50;99.90;;;;;;5072706;28;20400;-52
2023/06/23 05:04:59;;;;;;;15.07;7.72;;;16.50;99.90;;;;;;5090635;28;20023;-51
2023/06/23 05:07:26;;;;;;;14.00;8.52;;;16.60;99.90;;;;;;5090723;28;20063;-49
2023/06/23 05:09:53;;;;;;;15.15;8.35;;;16.60;99.90;;;;;;5090446;28;20404;-54
2023/06/23 05:12:21;;;;;;;12.13;7.32;;;16.60;99.90;;;;;;5090332;28;20477;-49
2023/06/23 05:14:49;;;;;;;17.30;7.82;;;16.70;99.90;;;;;;5090621;28;20104;-50
2023/06/23 05:17:16;;;;;;;16.20;8.32;;;16.70;99.90;;;;;;5090677;28;20121;-54
2023/06/23 05:19:44;;;;;;;15.07;8.57;;;16.70;99.90;;;;;;5072545;28;20039;-51
2023/06/23 05:22:15;;;;;;;15.27;7.55;;;16.80;99.90;;;;;;5090229;28;20035;-53
2023/06/23 05:24:50;;;;;;;14.02;8.45;;;16.80;99.90;;;;;;5090563;28;20039;-51
2023/06/23 05:27:20;;;;;;;15.35;8.35;;;16.80;99.90;;;;;;5090327;28;20029;-54
2023/06/23 05:29:48;;;;;;;13.90;7.90;;;16.70;99.90;;;;;;5090476;28;20020;-50
2023/06/23 05:32:17;;;;;;;15.07;7.97;;;16.70;99.90;;;;;;5090330;28;20118;-49
2023/06/23 05:34:46;;;;;;;16.50;8.23;;;16.80;99.90;;;;;;5090416;28;20063;-52
2023/06/23 05:37:14;;;;;;;14.75;8.65;;;16.80;99.90;;;;;;5090646;28;20028;-53
2023/06/23 05:39:41;;;;;;;14.93;9.07;;;16.80;99.90;;;;;;5090396;28;20032;-52
2023/06/23 05:42:07;;;;;;;16.67;9.40;;;16.80;99.90;;;;;;5090058;28;20040;-49
2023/06/23 05:44:33;;;;;;;15.25;8.07;;;16.80;99.90;;;;;;5090426;28;20405;-50
2023/06/23 05:47:00;;;;;;;13.32;8.25;;;16.80;99.90;;;;;;5092428;28;20034;-49
2023/06/23 05:49:29;;;;;;;15.40;8.93;;;16.90;99.90;;;;;;5094145;28;20032;-50
2023/06/23 05:52:00;;;;;;;16.25;8.88;;;16.90;99.90;;;;;;5094164;28;20032;-53
2023/06/23 05:54:29;;;;;;;12.90;8.32;;;17.00;99.90;;;;;;5094229;28;20024;-51
2023/06/23 05:56:58;;;;;;;15.30;8.93;;;17.10;99.90;;;;;;5075888;28;20078;-52
2023/06/23 05:59:25;;;;;;;13.38;7.97;;;17.20;99.90;;;;;;5094016;28;20035;-51
2023/06/23 06:01:54;;;;;;;15.48;8.75;;;17.30;99.90;;;;;;5093791;28;20036;-52
2023/06/23 06:04:26;;;;;;;17.42;8.63;;;17.30;99.90;;;;;;5093982;28;20495;-53
2023/06/23 06:06:53;;;;;;;15.98;8.55;;;17.40;99.90;;;;;;5094002;28;20093;-52
2023/06/23 06:09:21;;;;;;;13.43;8.18;;;17.40;99.90;;;;;;5093595;28;20610;-53
2023/06/23 06:11:47;;;;;;;17.35;9.60;;;17.40;99.90;;;;;;5093563;28;20032;-52
2023/06/23 06:14:15;;;;;;;19.60;9.48;;;17.30;99.90;;;;;;5093736;28;20024;-52
2023/06/23 06:16:42;;;;;;;16.35;9.27;;;17.40;99.90;;;;;;5093614;28;20089;-51
2023/06/23 06:19:09;;;;;;;15.93;9.18;;;17.40;99.90;;;;;;5075481;28;20044;-53
2023/06/23 06:21:37;;;;;;;16.20;8.77;;;17.50;99.90;;;;;;5075276;28;20078;-53
2023/06/23 06:24:05;;;;;;;15.40;8.82;;;17.60;99.90;;;;;;5093356;28;20043;-52
2023/06/23 06:26:31;;;;;;;15.23;8.63;;;17.70;99.90;;;;;;5093925;28;20097;-51
2023/06/23 06:28:58;;;;;;;16.20;9.05;;;17.90;99.90;;;;;;5093827;28;20504;-54
2023/06/23 06:31:27;;;;;;;17.25;8.75;;;18.00;99.90;;;;;;5093333;28;20028;-53
2023/06/23 06:33:54;;;;;;;13.82;8.80;;;18.10;99.90;;;;;;5093389;28;20491;-54
2023/06/23 06:36:22;;;;;;;13.90;8.65;;;18.20;99.90;;;;;;5093236;28;20107;-51
2023/06/23 06:38:51;;;;;;;14.47;8.00;;;18.30;99.90;;;;;;5093565;28;20047;-53
2023/06/23 06:41:17;;;;;;;13.65;7.95;;;18.40;99.90;;;;;;5074845;28;20458;-54
2023/06/23 06:43:44;;;;;;;13.98;7.90;;;18.50;99.90;;;;;;5093132;28;20041;-50
2023/06/23 06:46:11;;;;;;;15.50;7.85;;;18.50;99.90;;;;;;5075067;28;20032;-51
2023/06/23 06:48:39;;;;;;;12.10;7.45;;;18.50;99.90;;;;;;5093010;28;20471;-50
2023/06/23 06:51:05;;;;;;;12.52;7.53;;;18.50;99.90;;;;;;5092871;28;20020;-52
2023/06/23 06:53:32;;;;;;;13.55;7.55;;;18.50;99.90;;;;;;5092848;28;20032;-53
2023/06/23 06:55:58;;;;;;;12.00;7.40;;;18.50;99.90;;;;;;5093311;28;20031;-54
2023/06/23 06:58:25;;;;;;;16.15;8.63;;;18.60;99.90;;;;;;5092704;28;20366;-51
2023/06/23 07:00:53;;;;;;;15.88;8.05;;;18.60;99.90;;;;;;5092769;28;20043;-54
2023/06/23 07:03:19;;;;;;;16.45;8.05;;;18.70;99.90;;;;;;5092828;28;20460;-53
2023/06/23 07:05:45;;;;;;;13.40;7.32;;;18.80;99.90;;;;;;5092804;28;20020;-53
2023/06/23 07:08:10;;;;;;;12.55;7.47;;;19.00;99.90;;;;;;5092720;28;20039;-52
2023/06/23 07:10:36;;;;;;;12.93;7.30;;;19.00;99.90;;;;;;5092615;28;20058;-55
2023/06/23 07:13:03;;;;;;;14.15;7.65;;;19.00;99.90;;;;;;5092881;28;20031;-55
2023/06/23 07:15:29;;;;;;;12.60;8.02;;;18.90;99.90;;;;;;5092937;28;20044;-53
2023/06/23 07:17:55;;;;;;;14.77;8.40;;;18.80;99.90;;;;;;5092859;28;20417;-54
2023/06/23 07:20:20;;;;;;;13.82;8.40;;;18.70;99.90;;;;;;5092719;28;20028;-52
2023/06/23 07:22:46;;;;;;;14.43;7.75;;;18.60;99.90;;;;;;5092400;28;20479;-53
2023/06/23 07:25:12;;;;;;;13.90;7.45;;;18.60;99.90;;;;;;5092686;28;20038;-54
2023/06/23 07:27:37;;;;;;;13.10;6.90;;;18.60;99.90;;;;;;5092267;28;20111;-52
2023/06/23 07:30:04;;;;;;;10.15;6.43;;;18.80;99.90;;;;;;5092327;28;20537;-53
2023/06/23 07:32:30;;;;;;;13.65;7.18;;;18.90;99.90;;;;;;5092224;28;20053;-52
2023/06/23 07:34:56;;;;;;;12.23;6.70;;;19.20;99.90;;;;;;5092248;28;20039;-51
2023/06/23 07:37:22;;;;;;;11.70;7.15;;;19.30;99.90;;;;;;5092237;28;20039;-53
2023/06/23 07:39:47;;;;;;;12.43;7.00;;;19.40;99.90;;;;;;5091973;28;20035;-52
2023/06/23 07:42:13;;;;;;;14.65;7.40;;;19.50;99.90;;;;;;5073975;28;20070;-55
2023/06/23 07:44:39;;;;;;;13.38;7.47;;;19.70;99.90;;;;;;5092226;28;20131;-51
2023/06/23 07:47:05;;;;;;;10.70;6.68;;;19.80;99.90;;;;;;5092034;28;20028;-52
2023/06/23 07:49:31;;;;;;;13.23;7.10;;;19.80;99.90;;;;;;5091752;28;20473;-54
2023/06/23 07:52:00;;;;;;;14.98;8.95;;;19.80;99.90;;;;;;5091785;28;20320;-51
2023/06/23 07:54:29;;;;;;;10.73;5.50;;;19.90;99.90;;;;;;5091962;28;20500;-50
2023/06/23 07:56:56;;;;;;;10.25;6.47;;;20.10;99.90;;;;;;5091904;28;20036;-52
2023/06/23 07:59:22;;;;;;;11.80;6.63;;;20.10;99.90;;;;;;5091776;28;20047;-50
2023/06/23 08:01:48;;;;;;;13.93;6.13;;;20.20;99.90;;;;;;5092093;28;20031;-49
2023/06/23 08:04:13;;;;;;;11.85;6.40;;;20.20;99.90;;;;;;5092494;28;20039;-50
2023/06/23 08:06:39;;;;;;;12.73;5.85;;;20.20;99.90;;;;;;5092105;28;20099;-50
2023/06/23 08:09:05;;;;;;;8.45;4.88;;;20.30;99.90;;;;;;5091688;28;20380;-50
2023/06/23 08:11:31;;;;;;;8.43;5.10;;;20.30;99.90;;;;;;5092092;28;20540;-51
2023/06/23 08:13:57;;;;;;;9.68;5.40;;;20.40;99.90;;;;;;5093094;28;20063;-52
2023/06/23 08:16:22;;;;;;;10.98;5.45;;;20.40;99.90;;;;;;5093558;28;20427;-49
2023/06/23 08:18:48;;;;;;;7.82;4.32;;;20.50;99.90;;;;;;5093795;28;20054;-52
2023/06/23 08:21:14;;;;;;;8.82;4.35;;;20.60;99.90;;;;;;5093775;28;20024;-52
2023/06/23 08:23:41;;;;;;;7.47;3.88;;;20.70;99.90;;;;;;5091724;28;20484;-54
2023/06/23 08:26:13;;;;;;;6.28;3.90;;;20.80;99.90;;;;;;5091450;28;20036;-52
2023/06/23 08:28:39;;;;;;;6.32;3.47;;;20.80;99.90;;;;;;5090985;28;20030;-54
2023/06/23 08:31:05;;;;;;;6.20;3.20;;;20.90;99.90;;;;;;5091298;28;20496;-54
2023/06/23 08:33:34;;;;;;;8.57;3.40;;;20.90;99.90;;;;;;5091186;28;20111;-55
2023/06/23 08:36:02;;;;;;;6.78;4.05;;;20.90;99.90;;;;;;5091045;28;20537;-54
2023/06/23 08:38:28;;;;;;;6.40;3.15;;;20.90;99.90;;;;;;5072880;28;20106;-53
2023/06/23 08:40:54;;;;;;;6.82;3.20;;;20.90;99.90;;;;;;5090955;28;20495;-54
2023/06/23 08:43:26;;;;;;;5.43;3.28;;;21.00;99.90;;;;;;5091118;28;20453;-54
2023/06/23 08:45:56;;;;;;;6.93;3.17;;;21.10;99.90;;;;;;5091038;28;20035;-54
2023/06/23 08:48:30;;;;;;;7.88;3.47;;;21.20;99.90;;;;;;5090813;28;20024;-54
2023/06/23 08:50:58;;;;;;;4.97;2.80;;;21.30;99.90;;;;;;5090720;28;20380;-54
2023/06/23 08:53:24;;;;;;;6.90;3.30;;;21.30;99.90;;;;;;5072921;28;20032;-54
2023/06/23 08:55:52;;;;;;;5.40;2.63;;;21.40;99.90;;;;;;5090792;28;20035;-54
2023/06/23 08:58:22;;;;;;;7.35;3.63;;;21.30;99.90;;;;;;5090673;28;20035;-52
2023/06/23 09:00:52;;;;;;;7.35;3.58;;;21.50;99.90;;;;;;5090576;28;20439;-53
2023/06/23 09:03:19;;;;;;;6.28;2.80;;;21.50;99.90;;;;;;5090669;28;20472;-55
2023/06/23 09:05:45;;;;;;;10.73;5.07;;;21.50;99.90;;;;;;5090578;28;20024;-52
2023/06/23 09:08:11;;;;;;;8.13;3.47;;;21.50;99.90;;;;;;5090766;28;20234;-55
2023/06/23 09:10:37;;;;;;;8.95;4.18;;;21.60;99.90;;;;;;5072351;28;20032;-55
2023/06/23 09:13:20;;;;;;;7.05;3.75;;;21.70;99.90;;;;;;5090662;28;20496;-55
2023/06/23 09:15:48;;;;;;;6.57;3.47;;;21.60;99.90;;;;;;5072448;28;20059;-53
2023/06/23 09:18:16;;;;;;;8.45;3.92;;;21.60;99.90;;;;;;5090727;28;20043;-53
2023/06/23 09:20:47;;;;;;;6.15;3.35;;;21.60;99.90;;;;;;5090671;28;20029;-53
2023/06/23 09:23:18;;;;;;;7.10;4.28;;;21.50;99.90;;;;;;5094840;28;20073;-54
2023/06/23 09:25:47;;;;;;;7.18;4.05;;;21.60;99.90;;;;;;5076612;28;20028;-54
2023/06/23 09:28:42;;;;;;;9.20;4.65;;;21.70;99.90;;;;;;5093248;28;20381;-54
2023/06/23 09:31:10;;;;;;;7.90;3.80;;;21.60;99.90;;;;;;5093133;28;20037;-54
2023/06/23 09:33:44;;;;;;;6.72;3.75;;;21.60;99.90;;;;;;5075141;28;20036;-52
2023/06/23 09:36:09;;;;;;;6.90;3.15;;;21.50;99.90;;;;;;5093186;28;20024;-54
2023/06/23 09:38:36;;;;;;;5.65;2.95;;;21.50;99.90;;;;;;5092971;28;20032;-53
2023/06/23 09:41:09;;;;;;;7.60;3.10;;;21.60;99.90;;;;;;5092910;28;20028;-52
2023/06/23 09:43:42;;;;;;;8.77;3.42;;;21.80;99.90;;;;;;5093031;28;20032;-54
2023/06/23 09:46:13;;;;;;;5.60;3.10;;;21.90;99.90;;;;;;5093010;28;20123;-54
2023/06/23 09:48:40;;;;;;;4.72;3.05;;;22.10;99.90;;;;;;5092764;28;20028;-55
2023/06/23 09:51:06;;;;;;;5.63;3.45;;;22.10;99.90;;;;;;5092579;28;20035;-52
2023/06/23 09:53:37;;;;;;;5.78;3.50;;;22.40;99.90;;;;;;5092881;28;20110;-54
2023/06/23 09:56:04;;;;;;;5.80;3.67;;;22.50;99.90;;;;;;5092901;28;20032;-52
2023/06/23 09:58:40;;;;;;;5.30;3.30;;;22.60;99.90;;;;;;5092672;28;20129;-55
2023/06/23 10:01:11;;;;;;;8.88;3.50;;;22.70;99.90;;;;;;5092612;28;20039;-54
2023/06/23 10:03:46;;;;;;;6.70;3.45;;;22.70;99.90;;;;;;5092711;28;20032;-52
2023/06/23 10:06:28;;;;;;;6.60;3.10;;;22.80;99.90;;;;;;5074694;28;20035;-54
2023/06/23 10:08:59;;;;;;;4.75;2.60;;;22.90;99.90;;;;;;5092599;28;20552;-53
2023/06/23 10:11:36;;;;;;;4.35;2.53;;;22.70;99.90;;;;;;5092489;28;20020;-55
2023/06/23 10:14:11;;;;;;;5.95;3.28;;;22.60;99.90;;;;;;5092483;28;20036;-54
2023/06/23 10:16:43;;;;;;;6.38;3.53;;;22.50;99.90;;;;;;5092736;28;20054;-54
2023/06/23 10:19:10;;;;;;;5.60;3.38;;;22.50;99.90;;;;;;5092571;28;20039;-53
2023/06/23 10:21:36;;;;;;;7.07;4.22;;;22.80;99.90;;;;;;5092356;28;20107;-52
2023/06/23 10:24:08;;;;;;;6.20;3.15;;;23.10;99.90;;;;;;5092375;28;20118;-53
2023/06/23 10:26:35;;;;;;;;;;;23.20;99.90;;;;;;5055889;28;1078437;-53
2023/06/23 10:29:05;;;;;;;4.93;3.17;;;23.10;99.90;;;;;;5093469;28;19926;-52
2023/06/23 10:31:32;;;;;;;4.75;3.08;;;23.00;99.90;;;;;;5093468;28;20039;-54
2023/06/23 10:33:59;;;;;;;4.85;2.72;;;23.00;99.90;;;;;;5093107;28;20059;-54
2023/06/23 10:36:26;;;;;;;4.50;2.72;;;23.10;99.90;;;;;;5075532;28;20117;-53
2023/06/23 10:38:54;;;;;;;4.72;3.03;;;23.10;99.90;;;;;;5093138;28;20028;-53
2023/06/23 10:41:20;;;;;;;5.80;2.83;;;23.10;99.90;;;;;;5093396;28;20442;-53
2023/06/23 10:43:50;;;;;;;5.40;2.55;;;23.30;99.90;;;;;;5093390;28;20036;-53
2023/06/23 10:46:16;;;;;;;6.03;3.40;;;23.40;99.90;;;;;;5093592;28;20032;-53
2023/06/23 10:48:43;;;;;;;4.45;2.90;;;23.50;99.40;;;;;;5093343;28;20448;-49
2023/06/23 10:51:10;;;;;;;5.07;2.80;;;23.70;96.50;;;;;;5093337;28;20020;-54
2023/06/23 10:54:02;;;;;;;4.85;2.35;;;23.70;97.50;;;;;;5075051;28;20056;-49
2023/06/23 10:56:32;;;;;;;4.85;2.60;;;23.80;97.70;;;;;;5093145;28;20039;-53
2023/06/23 10:58:57;;;;;;;3.30;2.22;;;23.80;97.80;;;;;;5092851;28;20070;-50
2023/06/23 11:01:24;;;;;;;4.97;3.00;;;23.70;97.80;;;;;;5092787;28;20059;-48
2023/06/23 11:03:52;;;;;;;3.35;2.08;;;23.60;97.60;;;;;;5092535;28;20032;-53
2023/06/23 11:06:34;;;;;;;3.67;1.85;;;23.60;97.50;;;;;;5074832;28;20036;-50
2023/06/23 11:09:01;;;;;;;3.20;2.10;;;23.50;95.40;;;;;;5092612;28;20103;-49
2023/06/23 11:11:34;;;;;;;4.40;2.30;;;23.50;96.30;;;;;;5092601;28;20032;-49
2023/06/23 11:14:00;;;;;;;4.53;2.10;;;23.60;96.90;;;;;;5092526;28;20039;-48
2023/06/23 11:16:29;;;;;;;4.65;2.15;;;23.60;96.40;;;;;;5092592;28;20481;-49
2023/06/23 11:19:00;;;;;;;4.05;2.30;;;23.70;96.40;;;;;;5074042;28;20063;-52
2023/06/23 11:21:30;;;;;;;4.18;2.13;;;23.80;96.40;;;;;;5092286;28;20104;-50
2023/06/23 11:24:19;;;;;;;3.88;2.28;;;23.90;95.70;;;;;;5092353;28;20048;-50
2023/06/23 11:26:49;;;;;;;3.08;1.95;;;24.00;93.70;;;;;;5092180;28;20028;-49
2023/06/23 11:29:21;;;;;;;3.33;2.10;;;24.00;96.20;;;;;;5092040;28;20084;-49
2023/06/23 11:32:13;;;;;;;3.47;2.13;;;24.00;94.30;;;;;;5091815;28;20114;-55
2023/06/23 11:34:51;;;;;;;6.18;3.70;;;24.00;95.10;;;;;;5088168;28;20036;-50
2023/06/23 11:37:18;;;;;;;4.68;2.83;;;24.00;96.40;;;;;;5092046;28;20035;-50
2023/06/23 11:39:44;;;;;;;3.70;2.33;;;24.10;94.50;;;;;;5074170;28;20234;-50
2023/06/23 11:42:10;;;;;;;2.80;1.90;;;24.10;95.00;;;;;;5091749;28;20103;-52
2023/06/23 11:44:36;;;;;;;3.00;1.70;;;24.20;92.90;;;;;;5073034;28;20437;-52
2023/06/23 11:47:02;;;;;;;3.58;1.83;;;24.20;92.90;;;;;;5091821;28;20059;-53
2023/06/23 11:49:28;;;;;;;3.33;1.88;;;24.20;90.90;;;;;;5091657;28;20066;-52
2023/06/23 11:52:02;;;;;;;3.47;2.38;;;24.30;91.60;;;;;;5091505;28;20027;-54
2023/06/23 11:54:33;;;;;;;4.03;2.42;;;24.40;92.70;;;;;;5091784;28;20039;-52
2023/06/23 11:57:00;;;;;;;4.32;2.53;;;24.40;92.30;;;;;;5091724;28;20039;-52
2023/06/23 11:59:26;;;;;;;3.00;1.83;;;24.40;93.90;;;;;;5091609;28;20032;-51
2023/06/23 12:01:52;;;;;;;3.40;2.25;;;24.50;92.70;;;;;;5091325;28;20035;-53
2023/06/23 12:04:22;;;;;;;4.05;2.47;;;24.50;92.30;;;;;;5091383;28;20035;-50
2023/06/23 12:06:51;;;;;;;4.15;2.08;;;24.50;92.80;;;;;;5091812;28;20352;-52
2023/06/23 12:09:20;;;;;;;4.85;2.70;;;24.40;91.80;;;;;;5091362;28;20480;-52
2023/06/23 12:11:46;;;;;;;3.63;2.33;;;24.50;92.20;;;;;;5091450;28;20085;-51
2023/06/23 12:14:12;;;;;;;4.15;2.25;;;24.40;93.00;;;;;;5091343;28;20043;-51
2023/06/23 12:16:38;;;;;;;3.65;2.33;;;24.40;92.60;;;;;;5091296;28;20299;-52
2023/06/23 12:19:03;;;;;;;5.18;2.30;;;24.50;92.60;;;;;;5091019;28;20032;-53
2023/06/23 12:21:29;;;;;;;4.03;2.40;;;24.60;93.30;;;;;;5091123;28;20028;-51
2023/06/23 12:23:58;;;;;;;5.03;3.22;;;24.70;92.40;;;;;;5091130;28;20666;-50
2023/06/23 12:26:23;;;;;;;;;;;24.70;92.80;;;;;;5091735;28;20024;-52
2023/06/23 12:28:49;;;;;;;3.28;2.05;;;24.60;92.40;;;;;;5091202;28;19919;-52
2023/06/23 12:31:25;;;;;;;4.45;2.17;;;24.70;92.60;;;;;;5090831;28;20074;-51
2023/06/23 12:33:50;;;;;;;4.43;2.65;;;24.70;94.40;;;;;;5072779;28;20077;-50
2023/06/23 12:36:16;;;;;;;3.40;2.50;;;24.70;93.80;;;;;;5091172;28;20036;-52
2023/06/23 12:38:42;;;;;;;4.57;2.50;;;24.70;93.20;;;;;;5072903;28;20039;-54
2023/06/23 12:41:17;;;;;;;3.17;2.30;;;24.70;93.30;;;;;;5090834;28;20035;-53
2023/06/23 12:43:44;;;;;;;4.35;2.40;;;24.60;93.40;;;;;;5090931;28;20472;-53
2023/06/23 12:46:11;;;;;;;5.25;2.63;;;24.80;94.70;;;;;;5090968;28;20408;-53
2023/06/23 12:48:40;;;;;;;3.75;2.33;;;25.10;91.90;;;;;;5090742;28;20126;-50
2023/06/23 12:51:06;;;;;;;3.65;2.70;;;25.10;92.00;;;;;;5072649;28;20024;-50